createdAt,value
2023-08-30T00:04:50.664Z,32.4
2023-08-30T00:10:26.824Z,32.4
2023-08-30T00:15:47.872Z,32.4
2023-08-30T00:21:07.560Z,32.4
2023-08-30T00:26:28.238Z,32.3
2023-08-30T00:31:50.205Z,32.4
2023-08-30T00:37:10.941Z,32.4
2023-08-30T00:42:32.068Z,32.3
2023-08-30T00:47:37.908Z,32.3
2023-08-30T00:53:15.033Z,32.3
2023-08-30T00:58:55.137Z,32.3
2023-08-30T01:04:31.499Z,32.3
2023-08-30T01:09:51.917Z,32.2
2023-08-30T01:15:13.191Z,32.2
2023-08-30T01:20:49.596Z,32.2
2023-08-30T01:26:25.817Z,32.2
2023-08-30T01:32:17.483Z,32.1
2023-08-30T01:37:53.978Z,32.1
2023-08-30T01:43:44.674Z,32.1
2023-08-30T01:49:36.856Z,32.1
2023-08-30T01:55:12.797Z,32.1
2023-08-30T02:01:03.519Z,32.1
2023-08-30T02:06:55.701Z,32.1
2023-08-30T02:12:32.089Z,32.1
2023-08-30T02:18:24.707Z,32.1
2023-08-30T02:24:05.412Z,32.1
2023-08-30T02:29:41.869Z,32.1
2023-08-30T02:35:17.885Z,32.1
2023-08-30T02:40:54.675Z,32.2
2023-08-30T02:46:33.968Z,32.3
2023-08-30T02:52:09.731Z,32.3
2023-08-30T02:58:01.535Z,32.2
2023-08-30T03:03:53.769Z,32.2
2023-08-30T03:09:47.098Z,32.1
2023-08-30T03:15:38.968Z,32.1
2023-08-30T03:21:31.062Z,32.1
2023-08-30T03:27:22.145Z,32.1
2023-08-30T03:33:14.958Z,32.1
2023-08-30T03:39:06.415Z,32
2023-08-30T03:44:26.821Z,32
2023-08-30T03:49:49.261Z,32
2023-08-30T03:55:10.489Z,31.9
2023-08-30T04:00:33.459Z,32
2023-08-30T04:06:11.139Z,31.9
2023-08-30T04:11:32.547Z,31.9
2023-08-30T04:17:10.731Z,31.9
2023-08-30T04:22:35.224Z,31.9
2023-08-30T04:27:41.737Z,31.8
2023-08-30T04:33:18.288Z,31.8
2023-08-30T04:39:21.343Z,31.7
2023-08-30T04:45:13.364Z,31.6
2023-08-30T04:51:07.691Z,31.5
2023-08-30T04:57:00.268Z,31.5
2023-08-30T05:02:52.560Z,31.4
2023-08-30T05:08:44.414Z,31.3
2023-08-30T05:14:36.669Z,31.3
2023-08-30T05:20:15.773Z,31.1
2023-08-30T05:26:08.983Z,31.1
2023-08-30T05:32:01.417Z,31.1
2023-08-30T05:37:53.824Z,31
2023-08-30T05:43:45.554Z,30.9
2023-08-30T05:49:37.261Z,30.9
2023-08-30T05:55:29.082Z,31
2023-08-30T06:01:22.239Z,31
2023-08-30T06:07:14.581Z,31
2023-08-30T06:13:05.800Z,31.4
2023-08-30T06:18:55.928Z,32.8
2023-08-30T06:24:48.278Z,32.9
2023-08-30T06:30:53.575Z,34.1
2023-08-30T06:36:29.356Z,34.6
2023-08-30T06:42:24.060Z,33.9
2023-08-30T06:48:15.509Z,33.6
2023-08-30T06:53:52.482Z,33.7
2023-08-30T06:59:29.203Z,33.6
2023-08-30T07:05:05.305Z,34.2
2023-08-30T07:10:44.302Z,35
2023-08-30T07:16:35.856Z,37.3
2023-08-30T07:22:23.419Z,37.3
2023-08-30T07:27:59.439Z,39.9
2023-08-30T07:33:38.624Z,41.4
2023-08-30T07:39:48.576Z,42.6
2023-08-30T07:45:44.789Z,43.7
2023-08-30T07:51:36.781Z,42.4
2023-08-30T07:57:46.040Z,44.6
2023-08-30T08:03:41.175Z,46
2023-08-30T08:09:42.495Z,47.3
2023-08-30T08:15:34.749Z,47.8
2023-08-30T08:21:11.937Z,47.9
2023-08-30T08:27:06.318Z,49.2
2023-08-30T08:32:57.879Z,50.3
2023-08-30T08:38:51.643Z,51.3
2023-08-30T08:44:55.100Z,51.4
2023-08-30T08:56:46.389Z,52.9
2023-08-30T09:02:56.170Z,53.5
2023-08-30T09:08:50.106Z,54.1
2023-08-30T09:14:52.758Z,54.6
2023-08-30T09:20:59.137Z,55.2
2023-08-30T09:26:50.715Z,55.7
2023-08-30T09:32:56.018Z,56.3
2023-08-30T09:38:48.235Z,56.8
2023-08-30T09:45:03.465Z,57.5
2023-08-30T09:51:06.905Z,58.3
2023-08-30T10:34:17.825Z,58.8
2023-08-30T10:40:09.321Z,55.4
2023-08-30T10:46:20.456Z,54.4
2023-08-30T10:52:13.005Z,54.5
2023-08-30T10:58:05.022Z,56.6
2023-08-30T11:04:05.934Z,59.1
2023-08-30T11:09:50.921Z,60.8
2023-08-30T11:15:43.242Z,60.5
2023-08-30T11:21:34.361Z,58.2
2023-08-30T11:27:12.258Z,59.4
2023-08-30T11:32:49.223Z,61.5
2023-08-30T11:38:09.191Z,61.8
2023-08-30T11:43:58.033Z,61.9
2023-08-30T11:49:36.648Z,62
2023-08-30T11:55:19.351Z,61.9
2023-08-30T12:00:55.362Z,62.1
2023-08-30T12:06:48.595Z,62.2
2023-08-30T12:12:39.996Z,62.6
2023-08-30T12:18:16.362Z,62.4
2023-08-30T12:23:53.550Z,62.4
2023-08-30T12:29:44.222Z,62.5
2023-08-30T12:35:20.543Z,62.3
2023-08-30T12:41:00.258Z,62.3
2023-08-30T12:46:36.625Z,62
2023-08-30T12:52:13.144Z,61.9
2023-08-30T12:58:05.640Z,61.8
2023-08-30T13:03:43.770Z,61.8
2023-08-30T13:09:35.391Z,61.7
2023-08-30T13:15:12.159Z,61.6
2023-08-30T13:20:48.146Z,61.3
2023-08-30T13:26:18.694Z,61.1
2023-08-30T13:31:56.000Z,60.9
2023-08-30T13:37:32.246Z,60.5
2023-08-30T13:43:08.744Z,60.3
2023-08-30T13:48:50.415Z,59.8
2023-08-30T13:54:26.434Z,59.4
2023-08-30T14:00:02.828Z,58.9
2023-08-30T14:11:34.354Z,57.8
2023-08-30T14:17:28.568Z,57.5
2023-08-30T14:23:05.801Z,55.7
2023-08-30T14:29:00.519Z,53.6
2023-08-30T14:34:54.008Z,51
2023-08-30T14:40:47.117Z,49.3
2023-08-30T14:46:40.589Z,48.1
2023-08-30T14:52:33.594Z,47.3
2023-08-30T14:58:27.461Z,46.6
2023-08-30T15:04:21.832Z,46.2
2023-08-30T15:10:13.845Z,46.1
2023-08-30T15:16:07.732Z,45.9
2023-08-30T15:22:00.698Z,45.8
2023-08-30T15:27:52.595Z,45.6
2023-08-30T15:33:46.729Z,45.4
2023-08-30T15:39:22.807Z,45.2
2023-08-30T15:45:14.325Z,41.3
2023-08-30T15:50:51.452Z,42.3
2023-08-30T15:56:55.949Z,43.3
2023-08-30T16:02:47.883Z,43.9
2023-08-30T16:08:42.891Z,44.1
2023-08-30T16:14:34.767Z,44.3
2023-08-30T16:20:26.520Z,44.4
2023-08-30T16:26:19.521Z,44.4
2023-08-30T16:32:10.941Z,44.3
2023-08-30T16:38:03.754Z,44.3
2023-08-30T16:43:59.807Z,44.3
2023-08-30T16:50:15.047Z,44.2
2023-08-30T16:56:06.701Z,44.1
2023-08-30T17:02:01.687Z,44.1
2023-08-30T17:07:53.762Z,44
2023-08-30T17:13:46.285Z,43.9
2023-08-30T17:19:41.499Z,43.8
2023-08-30T17:25:02.014Z,43.7
2023-08-30T17:30:38.174Z,43.6
2023-08-30T17:36:35.805Z,43.5
2023-08-30T17:42:28.618Z,43.4
2023-08-30T17:48:12.083Z,43.3
2023-08-30T17:53:49.635Z,43.3
2023-08-30T17:59:40.385Z,43.2
2023-08-30T18:05:33.299Z,43.1
2023-08-30T18:11:12.615Z,43
2023-08-30T18:17:04.391Z,42.9
2023-08-30T18:22:40.641Z,42.9
2023-08-30T18:28:03.327Z,42.8
2023-08-30T18:33:55.581Z,42.8
2023-08-30T18:39:48.288Z,42.8
2023-08-30T18:45:51.347Z,42.6
2023-08-30T18:51:29.037Z,42.6
2023-08-30T18:57:24.660Z,42.5
2023-08-30T19:02:47.806Z,42.4
2023-08-30T19:08:25.548Z,42.3
2023-08-30T19:14:20.619Z,42.3
2023-08-30T19:20:14.518Z,42.2
2023-08-30T19:25:52.162Z,42.2
2023-08-30T19:31:30.378Z,42.1
2023-08-30T19:37:24.536Z,42.1
2023-08-30T19:43:17.071Z,42
2023-08-30T19:49:10.857Z,41.9
2023-08-30T19:55:03.893Z,41.9
2023-08-30T20:00:57.328Z,41.8
2023-08-30T20:06:53.121Z,41.8
2023-08-30T20:12:45.273Z,41.8
2023-08-30T20:18:39.714Z,41.7
2023-08-30T20:30:11.025Z,41.6
2023-08-30T20:35:47.614Z,41.6
2023-08-30T20:41:47.050Z,41.6
2023-08-30T20:47:49.585Z,41.5
2023-08-30T20:53:11.132Z,41.4
2023-08-30T20:59:19.366Z,41.4
2023-08-30T21:05:12.430Z,41.4
2023-08-30T21:11:03.898Z,41.4
2023-08-30T21:17:03.124Z,41.3
2023-08-30T21:22:24.738Z,41.3
2023-08-30T21:28:17.553Z,41.2
2023-08-30T21:34:09.868Z,41.2
2023-08-30T21:40:03.488Z,41.1
2023-08-30T21:45:56.297Z,41.1
2023-08-30T21:51:48.482Z,41.1
2023-08-30T21:57:40.728Z,41
2023-08-30T22:03:32.964Z,41
2023-08-30T22:09:25.591Z,40.9
2023-08-30T22:15:22.816Z,40.9
2023-08-30T22:26:50.888Z,40.8
2023-08-30T22:32:43.050Z,40.8
2023-08-30T22:38:36.297Z,40.7
2023-08-30T22:44:12.684Z,40.7
2023-08-30T22:50:05.287Z,40.6
2023-08-30T22:56:06.780Z,40.6
2023-08-30T23:01:58.887Z,40.6
2023-08-30T23:07:37.070Z,40.5
2023-08-30T23:13:28.765Z,40.4
2023-08-30T23:19:05.313Z,40.4
2023-08-30T23:24:57.432Z,40.4
2023-08-30T23:30:32.493Z,40.4
2023-08-30T23:36:24.190Z,40.3
2023-08-30T23:42:19.449Z,40.3
2023-08-30T23:48:12.403Z,40.3
2023-08-30T23:53:49.338Z,40.1
2023-08-30T23:59:25.297Z,40.1
